AFR360 DTTA-LFKJ
Flight info
| Callsign | AFR360 |
|---|---|
| Flight time | 1h 21m |
| Altitude | 36000 |
| Route | TOBIB2A TOBIB UA725 TANIT UM733 OSMAR DCT PIRIX DCT GIGGI DCT TEREZ |
| Aircraft | A20N/M-SDE2E3FGHIRWXY/LB1 |
Departure
| Time | 2026-04-10 12:15 |
|---|---|
| Airport | Tunis Carthage International Airport (DTTA) |
Arrival
| Time | 2026-04-10 13:36 |
|---|---|
| Airport | Ajaccio Napoléon Bonaparte airport (LFKJ) |
| Time | Latitude | Longitude | Altitude | Speed | Heading |
|---|---|---|---|---|---|
| 2026-04-10 11:37 | 36.84188 | 10.21802 | 23 ft | 0 kts | 281° |
| 2026-04-10 12:01 | 36.84186 | 10.21817 | 25 ft | 3 kts | 279° |
| 2026-04-10 12:02 | 36.84183 | 10.21842 | 25 ft | 3 kts | 274° |
| 2026-04-10 12:02 | 36.84183 | 10.21867 | 26 ft | 3 kts | 262° |
| 2026-04-10 12:02 | 36.84188 | 10.21890 | 24 ft | 3 kts | 228° |
| 2026-04-10 12:02 | 36.84196 | 10.21899 | 28 ft | 1 kts | 192° |
| 2026-04-10 12:03 | 36.84197 | 10.21899 | 28 ft | 1 kts | 192° |
| 2026-04-10 12:11 | 36.84195 | 10.21898 | 23 ft | 2 kts | 192° |
| 2026-04-10 12:11 | 36.84149 | 10.21886 | 23 ft | 11 kts | 192° |
| 2026-04-10 12:12 | 36.84057 | 10.21861 | 24 ft | 16 kts | 192° |
| 2026-04-10 12:12 | 36.83958 | 10.21835 | 22 ft | 16 kts | 192° |
| 2026-04-10 12:12 | 36.83906 | 10.21872 | 24 ft | 10 kts | 104° |
| 2026-04-10 12:12 | 36.83886 | 10.21971 | 22 ft | 14 kts | 104° |
| 2026-04-10 12:13 | 36.83859 | 10.22105 | 23 ft | 17 kts | 104° |
| 2026-04-10 12:13 | 36.83873 | 10.22234 | 22 ft | 7 kts | 56° |
| 2026-04-10 12:13 | 36.83896 | 10.22278 | 22 ft | 8 kts | 56° |
| 2026-04-10 12:13 | 36.83935 | 10.22344 | 24 ft | 11 kts | 50° |
| 2026-04-10 12:14 | 36.84000 | 10.22404 | 22 ft | 10 kts | 12° |
| 2026-04-10 12:14 | 36.84073 | 10.22423 | 23 ft | 15 kts | 12° |
| 2026-04-10 12:14 | 36.84414 | 10.22514 | 22 ft | 84 kts | 11° |
| 2026-04-10 12:14 | 36.85177 | 10.22721 | 28 ft | 136 kts | 12° |
| 2026-04-10 12:15 | 36.86187 | 10.23007 | 390 ft | 145 kts | 13° |
| 2026-04-10 12:15 | 36.87180 | 10.23204 | 998 ft | 144 kts | 354° |
| 2026-04-10 12:15 | 36.88146 | 10.22806 | 1516 ft | 154 kts | 333° |
| 2026-04-10 12:15 | 36.89172 | 10.22235 | 2120 ft | 164 kts | 336° |
| 2026-04-10 12:16 | 36.90267 | 10.21651 | 2629 ft | 182 kts | 337° |
| 2026-04-10 12:16 | 36.91499 | 10.21108 | 3141 ft | 198 kts | 341° |
| 2026-04-10 12:16 | 36.92916 | 10.20594 | 3539 ft | 225 kts | 345° |
| 2026-04-10 12:16 | 36.94526 | 10.20104 | 4141 ft | 251 kts | 345° |
| 2026-04-10 12:17 | 36.96298 | 10.19584 | 4947 ft | 265 kts | 345° |
| 2026-04-10 12:17 | 36.98086 | 10.19081 | 6121 ft | 266 kts | 345° |
| 2026-04-10 12:17 | 36.99909 | 10.18549 | 7193 ft | 270 kts | 344° |
| 2026-04-10 12:17 | 37.01743 | 10.17992 | 8241 ft | 274 kts | 344° |
| 2026-04-10 12:18 | 37.03597 | 10.17419 | 9313 ft | 277 kts | 344° |
| 2026-04-10 12:18 | 37.05487 | 10.16829 | 10331 ft | 282 kts | 343° |
| 2026-04-10 12:18 | 37.07455 | 10.16213 | 10882 ft | 303 kts | 343° |
| 2026-04-10 12:18 | 37.09575 | 10.15542 | 11283 ft | 326 kts | 343° |
| 2026-04-10 12:19 | 37.11810 | 10.14837 | 11986 ft | 335 kts | 343° |
| 2026-04-10 12:19 | 37.14086 | 10.14127 | 12918 ft | 339 kts | 343° |
| 2026-04-10 12:19 | 37.16389 | 10.13409 | 13840 ft | 343 kts | 343° |
| 2026-04-10 12:19 | 37.18730 | 10.12676 | 14651 ft | 347 kts | 343° |
| 2026-04-10 12:20 | 37.21075 | 10.11941 | 15508 ft | 349 kts | 343° |
| 2026-04-10 12:20 | 37.23427 | 10.11204 | 16309 ft | 352 kts | 342° |
| 2026-04-10 12:20 | 37.25833 | 10.10449 | 17106 ft | 356 kts | 342° |
| 2026-04-10 12:20 | 37.28224 | 10.09698 | 17883 ft | 359 kts | 342° |
| 2026-04-10 12:21 | 37.30646 | 10.08938 | 18618 ft | 363 kts | 342° |
| 2026-04-10 12:21 | 37.33105 | 10.08166 | 19314 ft | 366 kts | 342° |
| 2026-04-10 12:21 | 37.35506 | 10.07412 | 19963 ft | 369 kts | 342° |
| 2026-04-10 12:21 | 37.38102 | 10.06596 | 20638 ft | 373 kts | 342° |
| 2026-04-10 12:22 | 37.40625 | 10.05803 | 21303 ft | 376 kts | 342° |
| 2026-04-10 12:22 | 37.43176 | 10.05000 | 21954 ft | 379 kts | 342° |
| 2026-04-10 12:22 | 37.45728 | 10.04192 | 22615 ft | 382 kts | 342° |
| 2026-04-10 12:22 | 37.48322 | 10.03369 | 23247 ft | 386 kts | 342° |
| 2026-04-10 12:23 | 37.50952 | 10.02536 | 23845 ft | 389 kts | 342° |
| 2026-04-10 12:23 | 37.53572 | 10.01705 | 24403 ft | 391 kts | 342° |
| 2026-04-10 12:23 | 37.56231 | 10.00863 | 24948 ft | 394 kts | 342° |
| 2026-04-10 12:23 | 37.58892 | 10.00018 | 25479 ft | 396 kts | 342° |
| 2026-04-10 12:24 | 37.61568 | 9.99169 | 25997 ft | 399 kts | 342° |
| 2026-04-10 12:24 | 37.64268 | 9.98311 | 26506 ft | 401 kts | 342° |
| 2026-04-10 12:24 | 37.66974 | 9.97450 | 26999 ft | 403 kts | 342° |
| 2026-04-10 12:24 | 37.69701 | 9.96581 | 27485 ft | 406 kts | 342° |
| 2026-04-10 12:25 | 37.72413 | 9.95717 | 27955 ft | 408 kts | 342° |
| 2026-04-10 12:25 | 37.75203 | 9.94828 | 28415 ft | 410 kts | 342° |
| 2026-04-10 12:25 | 37.77947 | 9.93953 | 28849 ft | 412 kts | 342° |
| 2026-04-10 12:25 | 37.80771 | 9.93055 | 29289 ft | 414 kts | 342° |
| 2026-04-10 12:26 | 37.83540 | 9.92173 | 29694 ft | 417 kts | 342° |
| 2026-04-10 12:26 | 37.86361 | 9.91274 | 30113 ft | 419 kts | 341° |
| 2026-04-10 12:26 | 37.89199 | 9.90369 | 30479 ft | 421 kts | 341° |
| 2026-04-10 12:26 | 37.92068 | 9.89453 | 30838 ft | 423 kts | 341° |
| 2026-04-10 12:27 | 37.94900 | 9.88548 | 31191 ft | 424 kts | 341° |
| 2026-04-10 12:27 | 37.97788 | 9.87625 | 31627 ft | 424 kts | 341° |
| 2026-04-10 12:27 | 38.00616 | 9.86721 | 32100 ft | 422 kts | 341° |
| 2026-04-10 12:27 | 38.03490 | 9.85802 | 32590 ft | 421 kts | 341° |
| 2026-04-10 12:28 | 38.06320 | 9.84895 | 33058 ft | 419 kts | 341° |
| 2026-04-10 12:28 | 38.09105 | 9.84002 | 33516 ft | 418 kts | 341° |
| 2026-04-10 12:28 | 38.11916 | 9.83099 | 33951 ft | 416 kts | 341° |
| 2026-04-10 12:28 | 38.14728 | 9.82195 | 34349 ft | 415 kts | 340° |
| 2026-04-10 12:29 | 38.17515 | 9.81299 | 34687 ft | 414 kts | 340° |
| 2026-04-10 12:29 | 38.20300 | 9.80402 | 35017 ft | 414 kts | 340° |
| 2026-04-10 12:29 | 38.23103 | 9.79499 | 35335 ft | 413 kts | 340° |
| 2026-04-10 12:29 | 38.25875 | 9.78605 | 35656 ft | 412 kts | 340° |
| 2026-04-10 12:30 | 38.28590 | 9.77732 | 35953 ft | 412 kts | 340° |
| 2026-04-10 12:30 | 38.31374 | 9.76840 | 36257 ft | 412 kts | 340° |
| 2026-04-10 12:30 | 38.34151 | 9.75951 | 36545 ft | 411 kts | 340° |
| 2026-04-10 12:30 | 38.36919 | 9.75064 | 36837 ft | 410 kts | 340° |
| 2026-04-10 12:31 | 38.39686 | 9.74176 | 37129 ft | 410 kts | 340° |
| 2026-04-10 12:31 | 38.42454 | 9.73286 | 37393 ft | 409 kts | 340° |
| 2026-04-10 12:31 | 38.44309 | 9.72689 | 37565 ft | 409 kts | 339° |
| 2026-04-10 12:31 | 38.47037 | 9.71811 | 37837 ft | 409 kts | 339° |
| 2026-04-10 12:32 | 38.50732 | 9.70620 | 38068 ft | 408 kts | 339° |
| 2026-04-10 12:32 | 38.55287 | 9.69151 | 38091 ft | 406 kts | 339° |
| 2026-04-10 12:33 | 38.61677 | 9.67085 | 38096 ft | 405 kts | 339° |
| 2026-04-10 12:33 | 38.66216 | 9.65616 | 38059 ft | 405 kts | 339° |
| 2026-04-10 12:34 | 38.71685 | 9.63844 | 38082 ft | 404 kts | 339° |
| 2026-04-10 12:34 | 38.77143 | 9.62073 | 38100 ft | 403 kts | 339° |
| 2026-04-10 12:35 | 38.82581 | 9.60303 | 38066 ft | 403 kts | 339° |
| 2026-04-10 12:35 | 38.88001 | 9.58538 | 38060 ft | 402 kts | 339° |
| 2026-04-10 12:36 | 38.93447 | 9.56801 | 38069 ft | 403 kts | 340° |
| 2026-04-10 12:36 | 38.98900 | 9.55187 | 38064 ft | 403 kts | 341° |
| 2026-04-10 12:37 | 39.04369 | 9.53557 | 38049 ft | 403 kts | 341° |
| 2026-04-10 12:37 | 39.09832 | 9.51912 | 38059 ft | 403 kts | 341° |
| 2026-04-10 12:38 | 39.15291 | 9.50262 | 38057 ft | 404 kts | 341° |
| 2026-04-10 12:38 | 39.20733 | 9.48612 | 38055 ft | 403 kts | 341° |
| 2026-04-10 12:39 | 39.26232 | 9.46945 | 38048 ft | 404 kts | 341° |
| 2026-04-10 12:39 | 39.31689 | 9.45291 | 38058 ft | 405 kts | 341° |
| 2026-04-10 12:40 | 39.37165 | 9.43625 | 38057 ft | 406 kts | 341° |
| 2026-04-10 12:40 | 39.42667 | 9.41950 | 38070 ft | 407 kts | 341° |
| 2026-04-10 12:41 | 39.48194 | 9.40267 | 38068 ft | 407 kts | 341° |
| 2026-04-10 12:41 | 39.53711 | 9.38580 | 38073 ft | 408 kts | 341° |
| 2026-04-10 12:42 | 39.59233 | 9.36893 | 38077 ft | 408 kts | 341° |
| 2026-04-10 12:42 | 39.64765 | 9.35197 | 38077 ft | 409 kts | 341° |
| 2026-04-10 12:43 | 39.70297 | 9.33499 | 38079 ft | 409 kts | 342° |
| 2026-04-10 12:43 | 39.75833 | 9.31794 | 38073 ft | 410 kts | 342° |
| 2026-04-10 12:44 | 39.81394 | 9.30081 | 38074 ft | 411 kts | 342° |
| 2026-04-10 12:44 | 39.86951 | 9.28368 | 38075 ft | 411 kts | 342° |
| 2026-04-10 12:45 | 39.92537 | 9.26642 | 38074 ft | 412 kts | 342° |
| 2026-04-10 12:45 | 39.98097 | 9.24920 | 38082 ft | 412 kts | 342° |
| 2026-04-10 12:46 | 40.03674 | 9.23189 | 38085 ft | 412 kts | 342° |
| 2026-04-10 12:46 | 40.09261 | 9.21455 | 38072 ft | 411 kts | 342° |
| 2026-04-10 12:47 | 40.14818 | 9.19726 | 38069 ft | 410 kts | 342° |
| 2026-04-10 12:47 | 40.20334 | 9.18007 | 38068 ft | 410 kts | 342° |
| 2026-04-10 12:48 | 40.25928 | 9.16385 | 38066 ft | 412 kts | 347° |
| 2026-04-10 12:48 | 40.31602 | 9.15658 | 37607 ft | 411 kts | 351° |
| 2026-04-10 12:48 | 40.34447 | 9.15327 | 36753 ft | 417 kts | 350° |
| 2026-04-10 12:49 | 40.37342 | 9.14980 | 35669 ft | 425 kts | 351° |
| 2026-04-10 12:49 | 40.40312 | 9.14625 | 34611 ft | 434 kts | 351° |
| 2026-04-10 12:49 | 40.43371 | 9.14266 | 33607 ft | 438 kts | 351° |
| 2026-04-10 12:49 | 40.46376 | 9.13916 | 32610 ft | 440 kts | 351° |
| 2026-04-10 12:50 | 40.49440 | 9.13560 | 31744 ft | 440 kts | 352° |
| 2026-04-10 12:50 | 40.52485 | 9.13206 | 30832 ft | 441 kts | 352° |
| 2026-04-10 12:50 | 40.55567 | 9.12846 | 30173 ft | 437 kts | 352° |
| 2026-04-10 12:50 | 40.58537 | 9.12501 | 29577 ft | 430 kts | 352° |
| 2026-04-10 12:51 | 40.61498 | 9.12157 | 28985 ft | 423 kts | 353° |
| 2026-04-10 12:51 | 40.64399 | 9.11819 | 28412 ft | 416 kts | 353° |
| 2026-04-10 12:51 | 40.67301 | 9.11479 | 27824 ft | 410 kts | 353° |
| 2026-04-10 12:51 | 40.70086 | 9.11153 | 27276 ft | 405 kts | 353° |
| 2026-04-10 12:52 | 40.72904 | 9.10823 | 26712 ft | 400 kts | 353° |
| 2026-04-10 12:52 | 40.75637 | 9.10502 | 26151 ft | 395 kts | 353° |
| 2026-04-10 12:52 | 40.78383 | 9.10181 | 25562 ft | 392 kts | 353° |
| 2026-04-10 12:52 | 40.81064 | 9.09866 | 25063 ft | 387 kts | 354° |
| 2026-04-10 12:53 | 40.83723 | 9.09554 | 24447 ft | 386 kts | 354° |
| 2026-04-10 12:53 | 40.86381 | 9.09239 | 23975 ft | 380 kts | 354° |
| 2026-04-10 12:53 | 40.89047 | 9.08925 | 23381 ft | 378 kts | 354° |
| 2026-04-10 12:53 | 40.91623 | 9.08623 | 22881 ft | 373 kts | 354° |
| 2026-04-10 12:54 | 40.94183 | 9.08324 | 22335 ft | 368 kts | 354° |
| 2026-04-10 12:54 | 40.96750 | 9.08023 | 21813 ft | 364 kts | 354° |
| 2026-04-10 12:54 | 40.99232 | 9.07733 | 21297 ft | 361 kts | 354° |
| 2026-04-10 12:54 | 41.01731 | 9.07441 | 20776 ft | 358 kts | 353° |
| 2026-04-10 12:55 | 41.04220 | 9.07148 | 20258 ft | 355 kts | 353° |
| 2026-04-10 12:55 | 41.06647 | 9.06863 | 19744 ft | 353 kts | 353° |
| 2026-04-10 12:55 | 41.09083 | 9.06576 | 19177 ft | 353 kts | 353° |
| 2026-04-10 12:55 | 41.11528 | 9.06289 | 18709 ft | 350 kts | 353° |
| 2026-04-10 12:56 | 41.13944 | 9.06005 | 18112 ft | 350 kts | 353° |
| 2026-04-10 12:56 | 41.16348 | 9.05721 | 17660 ft | 345 kts | 353° |
| 2026-04-10 12:56 | 41.18734 | 9.05438 | 17150 ft | 342 kts | 353° |
| 2026-04-10 12:56 | 41.21092 | 9.05158 | 16647 ft | 339 kts | 353° |
| 2026-04-10 12:57 | 41.23435 | 9.04879 | 16152 ft | 336 kts | 353° |
| 2026-04-10 12:57 | 41.25762 | 9.04602 | 15655 ft | 334 kts | 353° |
| 2026-04-10 12:57 | 41.28072 | 9.04328 | 15162 ft | 332 kts | 353° |
| 2026-04-10 12:57 | 41.30377 | 9.04053 | 14606 ft | 333 kts | 353° |
| 2026-04-10 12:58 | 41.32655 | 9.03747 | 14185 ft | 328 kts | 350° |
| 2026-04-10 12:58 | 41.34885 | 9.03101 | 13622 ft | 328 kts | 342° |
| 2026-04-10 12:58 | 41.37124 | 9.02158 | 13423 ft | 346 kts | 341° |
| 2026-04-10 12:58 | 41.39423 | 9.01225 | 13329 ft | 346 kts | 342° |
| 2026-04-10 12:59 | 41.41737 | 9.00303 | 13234 ft | 344 kts | 342° |
| 2026-04-10 12:59 | 41.44025 | 8.99390 | 13137 ft | 344 kts | 342° |
| 2026-04-10 12:59 | 41.46313 | 8.98473 | 12985 ft | 344 kts | 342° |
| 2026-04-10 12:59 | 41.48612 | 8.97549 | 12816 ft | 342 kts | 342° |
| 2026-04-10 13:00 | 41.50879 | 8.96635 | 12627 ft | 340 kts | 342° |
| 2026-04-10 13:00 | 41.53146 | 8.95721 | 12452 ft | 340 kts | 342° |
| 2026-04-10 13:00 | 41.55405 | 8.94807 | 12268 ft | 339 kts | 341° |
| 2026-04-10 13:00 | 41.57655 | 8.93894 | 12088 ft | 338 kts | 341° |
| 2026-04-10 13:01 | 41.59905 | 8.92980 | 11909 ft | 337 kts | 341° |
| 2026-04-10 13:01 | 41.62140 | 8.92075 | 11762 ft | 336 kts | 341° |
| 2026-04-10 13:01 | 41.64376 | 8.91167 | 11545 ft | 335 kts | 340° |
| 2026-04-10 13:01 | 41.66417 | 8.89761 | 11299 ft | 330 kts | 320° |
| 2026-04-10 13:02 | 41.68106 | 8.87749 | 11061 ft | 328 kts | 317° |
| 2026-04-10 13:02 | 41.69810 | 8.85664 | 10634 ft | 328 kts | 316° |
| 2026-04-10 13:02 | 41.71486 | 8.83615 | 10363 ft | 319 kts | 316° |
| 2026-04-10 13:02 | 41.73090 | 8.81665 | 10235 ft | 305 kts | 317° |
| 2026-04-10 13:03 | 41.74622 | 8.79804 | 10119 ft | 292 kts | 316° |
| 2026-04-10 13:03 | 41.76097 | 8.78012 | 9909 ft | 283 kts | 316° |
| 2026-04-10 13:03 | 41.77547 | 8.76248 | 9604 ft | 277 kts | 316° |
| 2026-04-10 13:03 | 41.78953 | 8.74528 | 9311 ft | 272 kts | 316° |
| 2026-04-10 13:04 | 41.80354 | 8.72814 | 8910 ft | 271 kts | 317° |
| 2026-04-10 13:04 | 41.81743 | 8.71130 | 8536 ft | 269 kts | 317° |
| 2026-04-10 13:04 | 41.83127 | 8.69452 | 8195 ft | 265 kts | 317° |
| 2026-04-10 13:04 | 41.84500 | 8.67782 | 7765 ft | 265 kts | 317° |
| 2026-04-10 13:05 | 41.85856 | 8.66129 | 7397 ft | 264 kts | 317° |
| 2026-04-10 13:05 | 41.87215 | 8.64472 | 6958 ft | 265 kts | 317° |
| 2026-04-10 13:05 | 41.88561 | 8.62828 | 6637 ft | 262 kts | 317° |
| 2026-04-10 13:05 | 41.90014 | 8.61360 | 6233 ft | 262 kts | 329° |
| 2026-04-10 13:06 | 41.91686 | 8.60335 | 5819 ft | 263 kts | 341° |
| 2026-04-10 13:06 | 41.93419 | 8.59581 | 5575 ft | 269 kts | 340° |
| 2026-04-10 13:06 | 41.95165 | 8.58632 | 5256 ft | 267 kts | 334° |
| 2026-04-10 13:06 | 41.96740 | 8.57376 | 4933 ft | 262 kts | 320° |
| 2026-04-10 13:07 | 41.98266 | 8.56072 | 4608 ft | 263 kts | 340° |
| 2026-04-10 13:07 | 42.00068 | 8.55819 | 4290 ft | 266 kts | 7° |
| 2026-04-10 13:07 | 42.01773 | 8.56731 | 3965 ft | 266 kts | 35° |
| 2026-04-10 13:07 | 42.02948 | 8.58582 | 3637 ft | 259 kts | 65° |
| 2026-04-10 13:08 | 42.03297 | 8.60878 | 3372 ft | 246 kts | 96° |
| 2026-04-10 13:08 | 42.02860 | 8.63004 | 3226 ft | 229 kts | 112° |
| 2026-04-10 13:08 | 42.02291 | 8.64949 | 3054 ft | 219 kts | 112° |
| 2026-04-10 13:09 | 42.01239 | 8.68555 | 2974 ft | 199 kts | 112° |
| 2026-04-10 13:09 | 42.00757 | 8.70239 | 3037 ft | 185 kts | 112° |
| 2026-04-10 13:09 | 42.00308 | 8.71772 | 2994 ft | 164 kts | 113° |
| 2026-04-10 13:09 | 41.99932 | 8.73106 | 2991 ft | 142 kts | 108° |
| 2026-04-10 13:10 | 41.99742 | 8.74415 | 2760 ft | 145 kts | 102° |
| 2026-04-10 13:10 | 41.99566 | 8.75749 | 2530 ft | 144 kts | 101° |
| 2026-04-10 13:10 | 41.99407 | 8.77049 | 2342 ft | 140 kts | 101° |
| 2026-04-10 13:10 | 41.99254 | 8.78361 | 2136 ft | 144 kts | 99° |
| 2026-04-10 13:11 | 41.99104 | 8.79696 | 1911 ft | 142 kts | 101° |
| 2026-04-10 13:11 | 41.98920 | 8.81001 | 1563 ft | 142 kts | 109° |
| 2026-04-10 13:11 | 41.98440 | 8.82131 | 1214 ft | 140 kts | 140° |
| 2026-04-10 13:11 | 41.97602 | 8.82722 | 1124 ft | 137 kts | 170° |
| 2026-04-10 13:12 | 41.96685 | 8.82781 | 1026 ft | 132 kts | 193° |
| 2026-04-10 13:12 | 41.95814 | 8.82426 | 937 ft | 132 kts | 209° |
| 2026-04-10 13:12 | 41.95017 | 8.81865 | 752 ft | 126 kts | 208° |
| 2026-04-10 13:12 | 41.94219 | 8.81366 | 552 ft | 127 kts | 204° |
| 2026-04-10 13:13 | 41.93420 | 8.80901 | 292 ft | 121 kts | 204° |
| 2026-04-10 13:13 | 41.92587 | 8.80381 | 638 ft | 138 kts | 205° |
| 2026-04-10 13:13 | 41.91707 | 8.79840 | 1530 ft | 140 kts | 207° |
| 2026-04-10 13:13 | 41.90771 | 8.79164 | 2114 ft | 174 kts | 214° |
| 2026-04-10 13:14 | 41.89694 | 8.78179 | 2368 ft | 203 kts | 214° |
| 2026-04-10 13:14 | 41.88470 | 8.77074 | 2556 ft | 217 kts | 214° |
| 2026-04-10 13:14 | 41.87216 | 8.75953 | 2747 ft | 218 kts | 214° |
| 2026-04-10 13:14 | 41.85947 | 8.74819 | 2866 ft | 219 kts | 214° |
| 2026-04-10 13:15 | 41.84679 | 8.73686 | 2977 ft | 219 kts | 215° |
| 2026-04-10 13:15 | 41.83409 | 8.72548 | 3007 ft | 219 kts | 215° |
| 2026-04-10 13:15 | 41.82146 | 8.71412 | 3004 ft | 220 kts | 215° |
| 2026-04-10 13:15 | 41.80878 | 8.70274 | 3007 ft | 221 kts | 215° |
| 2026-04-10 13:16 | 41.79592 | 8.69122 | 2999 ft | 220 kts | 215° |
| 2026-04-10 13:16 | 41.78317 | 8.67979 | 3005 ft | 220 kts | 215° |
| 2026-04-10 13:16 | 41.77052 | 8.66846 | 3003 ft | 220 kts | 216° |
| 2026-04-10 13:16 | 41.75778 | 8.65706 | 2996 ft | 221 kts | 216° |
| 2026-04-10 13:17 | 41.74515 | 8.64576 | 2998 ft | 220 kts | 216° |
| 2026-04-10 13:17 | 41.73240 | 8.63435 | 3001 ft | 221 kts | 216° |
| 2026-04-10 13:17 | 41.71963 | 8.62298 | 2997 ft | 220 kts | 216° |
| 2026-04-10 13:17 | 41.70685 | 8.61161 | 3000 ft | 221 kts | 216° |
| 2026-04-10 13:18 | 41.69406 | 8.60021 | 3000 ft | 221 kts | 216° |
| 2026-04-10 13:18 | 41.68113 | 8.58869 | 2997 ft | 221 kts | 216° |
| 2026-04-10 13:18 | 41.67266 | 8.58115 | 2996 ft | 221 kts | 217° |
| 2026-04-10 13:18 | 41.65991 | 8.56982 | 2996 ft | 221 kts | 215° |
| 2026-04-10 13:19 | 41.64638 | 8.56003 | 2998 ft | 222 kts | 208° |
| 2026-04-10 13:19 | 41.63219 | 8.55162 | 2995 ft | 223 kts | 206° |
| 2026-04-10 13:19 | 41.61334 | 8.54069 | 2996 ft | 223 kts | 207° |
| 2026-04-10 13:19 | 41.60391 | 8.53503 | 2994 ft | 224 kts | 207° |
| 2026-04-10 13:20 | 41.58996 | 8.52560 | 2989 ft | 219 kts | 221° |
| 2026-04-10 13:20 | 41.58106 | 8.50989 | 2998 ft | 212 kts | 254° |
| 2026-04-10 13:20 | 41.58045 | 8.49066 | 2995 ft | 209 kts | 288° |
| 2026-04-10 13:20 | 41.58828 | 8.47465 | 2998 ft | 210 kts | 321° |
| 2026-04-10 13:21 | 41.60190 | 8.46757 | 2994 ft | 216 kts | 355° |
| 2026-04-10 13:21 | 41.61657 | 8.47223 | 2997 ft | 224 kts | 28° |
| 2026-04-10 13:21 | 41.62722 | 8.48743 | 2995 ft | 232 kts | 62° |
| 2026-04-10 13:21 | 41.63353 | 8.50737 | 2991 ft | 230 kts | 63° |
| 2026-04-10 13:22 | 41.64091 | 8.52614 | 2996 ft | 229 kts | 57° |
| 2026-04-10 13:22 | 41.64934 | 8.54419 | 2991 ft | 229 kts | 54° |
| 2026-04-10 13:22 | 41.65822 | 8.56171 | 2997 ft | 230 kts | 53° |
| 2026-04-10 13:22 | 41.66721 | 8.57952 | 2989 ft | 228 kts | 60° |
| 2026-04-10 13:23 | 41.67066 | 8.59974 | 2994 ft | 233 kts | 91° |
| 2026-04-10 13:23 | 41.67143 | 8.62108 | 2999 ft | 229 kts | 70° |
| 2026-04-10 13:23 | 41.67962 | 8.63879 | 3004 ft | 225 kts | 38° |
| 2026-04-10 13:23 | 41.69317 | 8.64763 | 3004 ft | 221 kts | 5° |
| 2026-04-10 13:24 | 41.70809 | 8.64564 | 3004 ft | 218 kts | 342° |
| 2026-04-10 13:24 | 41.72280 | 8.63987 | 2995 ft | 217 kts | 342° |
| 2026-04-10 13:24 | 41.73754 | 8.63513 | 2998 ft | 219 kts | 347° |
| 2026-04-10 13:24 | 41.75238 | 8.63176 | 3000 ft | 219 kts | 350° |
| 2026-04-10 13:25 | 41.76747 | 8.62927 | 2999 ft | 219 kts | 352° |
| 2026-04-10 13:25 | 41.78271 | 8.62717 | 2998 ft | 219 kts | 352° |
| 2026-04-10 13:25 | 41.79776 | 8.62526 | 3005 ft | 220 kts | 352° |
| 2026-04-10 13:25 | 41.81323 | 8.62329 | 3002 ft | 218 kts | 352° |
| 2026-04-10 13:26 | 41.82824 | 8.62135 | 2999 ft | 219 kts | 352° |
| 2026-04-10 13:26 | 41.84358 | 8.61932 | 3002 ft | 219 kts | 353° |
| 2026-04-10 13:26 | 41.85865 | 8.61734 | 3003 ft | 220 kts | 353° |
| 2026-04-10 13:26 | 41.87382 | 8.61533 | 2996 ft | 222 kts | 353° |
| 2026-04-10 13:27 | 41.88904 | 8.61327 | 3000 ft | 221 kts | 349° |
| 2026-04-10 13:27 | 41.90337 | 8.60603 | 2998 ft | 220 kts | 322° |
| 2026-04-10 13:27 | 41.91437 | 8.59192 | 2996 ft | 219 kts | 313° |
| 2026-04-10 13:27 | 41.92511 | 8.57760 | 2999 ft | 219 kts | 314° |
| 2026-04-10 13:28 | 41.93593 | 8.56353 | 2999 ft | 218 kts | 315° |
| 2026-04-10 13:28 | 41.94697 | 8.54926 | 2995 ft | 218 kts | 315° |
| 2026-04-10 13:28 | 41.95798 | 8.53500 | 2998 ft | 219 kts | 315° |
| 2026-04-10 13:28 | 41.97064 | 8.52422 | 3013 ft | 222 kts | 343° |
| 2026-04-10 13:29 | 41.98607 | 8.52420 | 3002 ft | 225 kts | 17° |
| 2026-04-10 13:29 | 41.99912 | 8.53533 | 3004 ft | 227 kts | 45° |
| 2026-04-10 13:29 | 42.00980 | 8.55100 | 2999 ft | 226 kts | 49° |
| 2026-04-10 13:29 | 42.02011 | 8.56694 | 2995 ft | 226 kts | 50° |
| 2026-04-10 13:30 | 42.02730 | 8.58556 | 3011 ft | 227 kts | 80° |
| 2026-04-10 13:30 | 42.02607 | 8.60612 | 3001 ft | 225 kts | 112° |
| 2026-04-10 13:30 | 42.01981 | 8.62558 | 3000 ft | 224 kts | 115° |
| 2026-04-10 13:30 | 42.01365 | 8.64406 | 2988 ft | 203 kts | 115° |
| 2026-04-10 13:31 | 42.00849 | 8.66093 | 3028 ft | 199 kts | 108° |
| 2026-04-10 13:31 | 42.00554 | 8.67954 | 2982 ft | 199 kts | 100° |
| 2026-04-10 13:31 | 42.00358 | 8.69662 | 3004 ft | 175 kts | 100° |
| 2026-04-10 13:31 | 42.00169 | 8.71235 | 2999 ft | 173 kts | 101° |
| 2026-04-10 13:32 | 41.99975 | 8.72811 | 3024 ft | 162 kts | 100° |
| 2026-04-10 13:32 | 41.99814 | 8.74191 | 3035 ft | 143 kts | 100° |
| 2026-04-10 13:32 | 41.99661 | 8.75536 | 2909 ft | 146 kts | 100° |
| 2026-04-10 13:32 | 41.99506 | 8.76881 | 2614 ft | 144 kts | 101° |
| 2026-04-10 13:33 | 41.99337 | 8.78177 | 2370 ft | 141 kts | 103° |
| 2026-04-10 13:33 | 41.99135 | 8.79500 | 2074 ft | 148 kts | 105° |
| 2026-04-10 13:33 | 41.98860 | 8.80865 | 1756 ft | 149 kts | 109° |
| 2026-04-10 13:33 | 41.98501 | 8.82149 | 1382 ft | 152 kts | 125° |
| 2026-04-10 13:34 | 41.97758 | 8.83086 | 1185 ft | 140 kts | 161° |
| 2026-04-10 13:34 | 41.96860 | 8.83088 | 964 ft | 127 kts | 208° |
| 2026-04-10 13:34 | 41.96143 | 8.82474 | 852 ft | 123 kts | 215° |
| 2026-04-10 13:34 | 41.95345 | 8.82004 | 740 ft | 127 kts | 202° |
| 2026-04-10 13:35 | 41.94534 | 8.81566 | 542 ft | 124 kts | 206° |
| 2026-04-10 13:35 | 41.93724 | 8.81079 | 291 ft | 127 kts | 204° |
| 2026-04-10 13:35 | 41.92961 | 8.80598 | 51 ft | 120 kts | 206° |
| 2026-04-10 13:35 | 41.92249 | 8.80165 | 27 ft | 96 kts | 201° |
| 2026-04-10 13:36 | 41.91811 | 8.79887 | 24 ft | 53 kts | 205° |
| 2026-04-10 13:36 | 41.91526 | 8.79706 | 21 ft | 35 kts | 204° |
| 2026-04-10 13:36 | 41.91365 | 8.79602 | 22 ft | 21 kts | 207° |
| 2026-04-10 13:36 | 41.91266 | 8.79535 | 23 ft | 14 kts | 213° |
| 2026-04-10 13:37 | 41.91256 | 8.79418 | 22 ft | 16 kts | 317° |
| 2026-04-10 13:37 | 41.91368 | 8.79346 | 21 ft | 20 kts | 336° |
| 2026-04-10 13:37 | 41.91483 | 8.79345 | 21 ft | 17 kts | 22° |
| 2026-04-10 13:37 | 41.91603 | 8.79423 | 22 ft | 21 kts | 23° |
| 2026-04-10 13:38 | 41.91687 | 8.79477 | 22 ft | 13 kts | 25° |
| 2026-04-10 13:38 | 41.91782 | 8.79535 | 21 ft | 17 kts | 24° |
| 2026-04-10 13:38 | 41.91889 | 8.79601 | 22 ft | 15 kts | 23° |
| 2026-04-10 13:38 | 41.91950 | 8.79639 | 21 ft | 1 kts | 26° |
| 2026-04-10 13:39 | 41.91973 | 8.79647 | 22 ft | 5 kts | 358° |
| 2026-04-10 13:39 | 41.91999 | 8.79618 | 21 ft | 4 kts | 320° |
| 2026-04-10 13:39 | 41.92017 | 8.79610 | 21 ft | 0 kts | 343° |